sensor_id;sensor_type;location;lat;lon;timestamp;temperature;humidity
15013;DHT22;7603;49.432;11.418;2023-02-28T00:00:25;-4.70;99.90
15013;DHT22;7603;49.432;11.418;2023-02-28T00:02:51;-4.70;99.90
15013;DHT22;7603;49.432;11.418;2023-02-28T00:05:19;-4.70;99.90
15013;DHT22;7603;49.432;11.418;2023-02-28T00:07:46;-4.60;99.90
15013;DHT22;7603;49.432;11.418;2023-02-28T00:10:14;-4.60;99.90
15013;DHT22;7603;49.432;11.418;2023-02-28T00:12:52;-4.60;99.90
15013;DHT22;7603;49.432;11.418;2023-02-28T00:15:19;-4.50;99.90
15013;DHT22;7603;49.432;11.418;2023-02-28T00:17:45;-4.50;99.90
15013;DHT22;7603;49.432;11.418;2023-02-28T00:20:11;-4.40;99.90
15013;DHT22;7603;49.432;11.418;2023-02-28T00:22:42;-4.40;99.90
15013;DHT22;7603;49.432;11.418;2023-02-28T00:25:09;-4.40;99.90
15013;DHT22;7603;49.432;11.418;2023-02-28T00:27:36;-4.40;99.90
15013;DHT22;7603;49.432;11.418;2023-02-28T00:30:03;-4.40;99.90
15013;DHT22;7603;49.432;11.418;2023-02-28T00:32:30;-4.40;99.90
15013;DHT22;7603;49.432;11.418;2023-02-28T00:34:55;-4.40;99.90
15013;DHT22;7603;49.432;11.418;2023-02-28T00:37:22;-4.40;99.90
15013;DHT22;7603;49.432;11.418;2023-02-28T00:39:47;-4.40;99.90
15013;DHT22;7603;49.432;11.418;2023-02-28T00:42:13;-4.50;99.90
15013;DHT22;7603;49.432;11.418;2023-02-28T00:44:38;-4.50;99.90
15013;DHT22;7603;49.432;11.418;2023-02-28T00:47:04;-4.50;99.90
15013;DHT22;7603;49.432;11.418;2023-02-28T00:49:30;-4.60;99.90
15013;DHT22;7603;49.432;11.418;2023-02-28T00:51:56;-4.60;99.90
15013;DHT22;7603;49.432;11.418;2023-02-28T00:54:22;-4.60;99.90
15013;DHT22;7603;49.432;11.418;2023-02-28T00:56:48;-4.60;99.90
15013;DHT22;7603;49.432;11.418;2023-02-28T00:59:15;-4.60;99.90
15013;DHT22;7603;49.432;11.418;2023-02-28T01:01:43;-4.70;99.90
15013;DHT22;7603;49.432;11.418;2023-02-28T01:04:09;-4.70;99.90
15013;DHT22;7603;49.432;11.418;2023-02-28T01:06:35;-4.70;99.90
15013;DHT22;7603;49.432;11.418;2023-02-28T01:09:02;-4.70;99.90
15013;DHT22;7603;49.432;11.418;2023-02-28T01:11:27;-4.70;99.90
15013;DHT22;7603;49.432;11.418;2023-02-28T01:13:53;-4.70;99.90
15013;DHT22;7603;49.432;11.418;2023-02-28T01:16:19;-4.80;99.90
15013;DHT22;7603;49.432;11.418;2023-02-28T01:18:44;-4.80;99.90
15013;DHT22;7603;49.432;11.418;2023-02-28T01:21:12;-4.80;99.90
15013;DHT22;7603;49.432;11.418;2023-02-28T01:23:39;-4.80;99.90
15013;DHT22;7603;49.432;11.418;2023-02-28T01:26:09;-4.90;99.90
15013;DHT22;7603;49.432;11.418;2023-02-28T01:28:36;-4.80;99.90
15013;DHT22;7603;49.432;11.418;2023-02-28T01:31:01;-4.80;99.90
15013;DHT22;7603;49.432;11.418;2023-02-28T01:33:27;-4.80;99.90
15013;DHT22;7603;49.432;11.418;2023-02-28T01:36:09;-4.80;99.90
15013;DHT22;7603;49.432;11.418;2023-02-28T01:38:36;-4.80;99.90
15013;DHT22;7603;49.432;11.418;2023-02-28T01:41:02;-4.80;99.90
15013;DHT22;7603;49.432;11.418;2023-02-28T01:43:31;-4.80;99.90
15013;DHT22;7603;49.432;11.418;2023-02-28T01:45:58;-4.90;99.90
15013;DHT22;7603;49.432;11.418;2023-02-28T01:48:33;-4.90;99.90
15013;DHT22;7603;49.432;11.418;2023-02-28T01:51:22;-4.90;99.90
15013;DHT22;7603;49.432;11.418;2023-02-28T01:53:54;-4.90;99.90
15013;DHT22;7603;49.432;11.418;2023-02-28T01:56:25;-4.80;99.90
15013;DHT22;7603;49.432;11.418;2023-02-28T01:58:53;-4.80;99.90
15013;DHT22;7603;49.432;11.418;2023-02-28T02:01:20;-4.80;99.90
15013;DHT22;7603;49.432;11.418;2023-02-28T02:03:51;-4.80;99.90
15013;DHT22;7603;49.432;11.418;2023-02-28T02:07:03;-4.70;99.90
15013;DHT22;7603;49.432;11.418;2023-02-28T02:09:10;-4.70;99.90
15013;DHT22;7603;49.432;11.418;2023-02-28T02:11:36;-4.70;99.90
15013;DHT22;7603;49.432;11.418;2023-02-28T02:14:25;-4.70;99.90
15013;DHT22;7603;49.432;11.418;2023-02-28T02:17:17;-4.70;99.90
15013;DHT22;7603;49.432;11.418;2023-02-28T02:25:26;-4.60;99.90
15013;DHT22;7603;49.432;11.418;2023-02-28T02:36:37;-4.70;99.90
15013;DHT22;7603;49.432;11.418;2023-02-28T02:41:51;-4.80;99.90
15013;DHT22;7603;49.432;11.418;2023-02-28T02:44:31;-4.80;99.90
15013;DHT22;7603;49.432;11.418;2023-02-28T02:47:03;-4.90;99.90
15013;DHT22;7603;49.432;11.418;2023-02-28T02:49:34;-4.90;99.90
15013;DHT22;7603;49.432;11.418;2023-02-28T02:52:04;-5.00;99.90
15013;DHT22;7603;49.432;11.418;2023-02-28T02:54:35;-5.00;99.90
15013;DHT22;7603;49.432;11.418;2023-02-28T02:57:06;-5.00;99.90
15013;DHT22;7603;49.432;11.418;2023-02-28T02:59:36;-5.00;99.90
15013;DHT22;7603;49.432;11.418;2023-02-28T03:02:04;-5.00;99.90
15013;DHT22;7603;49.432;11.418;2023-02-28T03:04:34;-5.00;99.90
15013;DHT22;7603;49.432;11.418;2023-02-28T03:07:03;-5.00;99.90
15013;DHT22;7603;49.432;11.418;2023-02-28T03:09:29;-5.00;99.90
15013;DHT22;7603;49.432;11.418;2023-02-28T03:11:58;-5.00;99.90
15013;DHT22;7603;49.432;11.418;2023-02-28T03:20:24;-5.00;99.90
15013;DHT22;7603;49.432;11.418;2023-02-28T03:23:19;-5.10;99.90
15013;DHT22;7603;49.432;11.418;2023-02-28T03:26:05;-5.10;99.90
15013;DHT22;7603;49.432;11.418;2023-02-28T03:31:20;-5.10;99.90
15013;DHT22;7603;49.432;11.418;2023-02-28T03:36:29;-5.10;99.90
15013;DHT22;7603;49.432;11.418;2023-02-28T03:38:59;-5.10;99.90
15013;DHT22;7603;49.432;11.418;2023-02-28T03:41:52;-5.10;99.90
15013;DHT22;7603;49.432;11.418;2023-02-28T03:44:26;-5.10;99.90
15013;DHT22;7603;49.432;11.418;2023-02-28T03:47:00;-5.10;99.90
15013;DHT22;7603;49.432;11.418;2023-02-28T03:49:34;-5.10;99.90
15013;DHT22;7603;49.432;11.418;2023-02-28T03:52:03;-5.10;99.90
15013;DHT22;7603;49.432;11.418;2023-02-28T03:54:32;-5.10;99.90
15013;DHT22;7603;49.432;11.418;2023-02-28T03:57:05;-5.20;99.90
15013;DHT22;7603;49.432;11.418;2023-02-28T03:59:37;-5.20;99.90
15013;DHT22;7603;49.432;11.418;2023-02-28T04:02:05;-5.20;99.90
15013;DHT22;7603;49.432;11.418;2023-02-28T04:04:31;-5.30;99.90
15013;DHT22;7603;49.432;11.418;2023-02-28T04:07:08;-5.20;99.90
15013;DHT22;7603;49.432;11.418;2023-02-28T04:09:36;-5.30;99.90
15013;DHT22;7603;49.432;11.418;2023-02-28T04:12:01;-5.30;99.90
15013;DHT22;7603;49.432;11.418;2023-02-28T04:14:27;-5.30;99.90
15013;DHT22;7603;49.432;11.418;2023-02-28T04:16:53;-5.30;99.90
15013;DHT22;7603;49.432;11.418;2023-02-28T04:19:19;-5.30;99.90
15013;DHT22;7603;49.432;11.418;2023-02-28T04:21:50;-5.30;99.90
15013;DHT22;7603;49.432;11.418;2023-02-28T04:24:25;-5.30;99.90
15013;DHT22;7603;49.432;11.418;2023-02-28T04:26:54;-5.30;99.90
15013;DHT22;7603;49.432;11.418;2023-02-28T04:29:22;-5.30;99.90
15013;DHT22;7603;49.432;11.418;2023-02-28T04:31:49;-5.40;99.90
15013;DHT22;7603;49.432;11.418;2023-02-28T04:34:14;-5.40;99.90
15013;DHT22;7603;49.432;11.418;2023-02-28T04:36:40;-5.40;99.90
15013;DHT22;7603;49.432;11.418;2023-02-28T04:39:06;-5.40;99.90
15013;DHT22;7603;49.432;11.418;2023-02-28T04:41:31;-5.40;99.90
15013;DHT22;7603;49.432;11.418;2023-02-28T04:43:57;-5.40;99.90
15013;DHT22;7603;49.432;11.418;2023-02-28T04:46:23;-5.40;99.90
15013;DHT22;7603;49.432;11.418;2023-02-28T04:48:49;-5.40;99.90
15013;DHT22;7603;49.432;11.418;2023-02-28T04:51:16;-5.40;99.90
15013;DHT22;7603;49.432;11.418;2023-02-28T04:53:43;-5.40;99.90
15013;DHT22;7603;49.432;11.418;2023-02-28T04:56:12;-5.40;99.90
15013;DHT22;7603;49.432;11.418;2023-02-28T04:58:38;-5.40;99.90
15013;DHT22;7603;49.432;11.418;2023-02-28T05:01:19;-5.30;99.90
15013;DHT22;7603;49.432;11.418;2023-02-28T05:03:45;-5.30;99.90
15013;DHT22;7603;49.432;11.418;2023-02-28T05:06:12;-5.30;99.90
15013;DHT22;7603;49.432;11.418;2023-02-28T05:08:38;-5.30;99.90
15013;DHT22;7603;49.432;11.418;2023-02-28T05:11:07;-5.30;99.90
15013;DHT22;7603;49.432;11.418;2023-02-28T05:13:33;-5.20;99.90
15013;DHT22;7603;49.432;11.418;2023-02-28T05:16:00;-5.20;99.90
15013;DHT22;7603;49.432;11.418;2023-02-28T05:18:25;-5.20;99.90
15013;DHT22;7603;49.432;11.418;2023-02-28T05:20:51;-5.20;99.90
15013;DHT22;7603;49.432;11.418;2023-02-28T05:23:17;-5.20;99.90
15013;DHT22;7603;49.432;11.418;2023-02-28T05:25:44;-5.20;99.90
15013;DHT22;7603;49.432;11.418;2023-02-28T05:28:10;-5.20;99.90
15013;DHT22;7603;49.432;11.418;2023-02-28T05:30:35;-5.20;99.90
15013;DHT22;7603;49.432;11.418;2023-02-28T05:33:01;-5.10;99.90
15013;DHT22;7603;49.432;11.418;2023-02-28T05:35:26;-5.00;99.90
15013;DHT22;7603;49.432;11.418;2023-02-28T05:37:52;-5.00;99.90
15013;DHT22;7603;49.432;11.418;2023-02-28T05:40:18;-5.00;99.90
15013;DHT22;7603;49.432;11.418;2023-02-28T05:42:46;-5.00;99.90
15013;DHT22;7603;49.432;11.418;2023-02-28T05:45:11;-5.00;99.90
15013;DHT22;7603;49.432;11.418;2023-02-28T05:47:37;-5.00;99.90
15013;DHT22;7603;49.432;11.418;2023-02-28T05:50:05;-5.00;99.90
15013;DHT22;7603;49.432;11.418;2023-02-28T05:52:31;-5.00;99.90
15013;DHT22;7603;49.432;11.418;2023-02-28T05:54:56;-5.10;99.90
15013;DHT22;7603;49.432;11.418;2023-02-28T05:57:22;-5.10;99.90
15013;DHT22;7603;49.432;11.418;2023-02-28T05:59:48;-5.10;99.90
15013;DHT22;7603;49.432;11.418;2023-02-28T06:02:15;-5.10;99.90
15013;DHT22;7603;49.432;11.418;2023-02-28T06:04:42;-5.10;99.90
15013;DHT22;7603;49.432;11.418;2023-02-28T06:07:08;-5.10;99.90
15013;DHT22;7603;49.432;11.418;2023-02-28T06:09:34;-5.10;99.90
15013;DHT22;7603;49.432;11.418;2023-02-28T06:12:01;-5.10;99.90
15013;DHT22;7603;49.432;11.418;2023-02-28T06:14:29;-5.10;99.90
15013;DHT22;7603;49.432;11.418;2023-02-28T06:16:56;-5.10;99.90
15013;DHT22;7603;49.432;11.418;2023-02-28T06:19:22;-5.00;99.90
15013;DHT22;7603;49.432;11.418;2023-02-28T06:21:51;-5.00;99.90
15013;DHT22;7603;49.432;11.418;2023-02-28T06:24:18;-5.00;99.90
15013;DHT22;7603;49.432;11.418;2023-02-28T06:26:44;-5.00;99.90
15013;DHT22;7603;49.432;11.418;2023-02-28T06:29:10;-4.90;99.90
15013;DHT22;7603;49.432;11.418;2023-02-28T06:31:36;-4.80;99.90
15013;DHT22;7603;49.432;11.418;2023-02-28T06:34:01;-4.80;99.90
15013;DHT22;7603;49.432;11.418;2023-02-28T06:36:27;-4.70;99.90
15013;DHT22;7603;49.432;11.418;2023-02-28T06:38:53;-4.70;99.90
15013;DHT22;7603;49.432;11.418;2023-02-28T06:41:25;-4.60;99.90
15013;DHT22;7603;49.432;11.418;2023-02-28T06:43:51;-4.50;99.90
15013;DHT22;7603;49.432;11.418;2023-02-28T06:46:17;-4.40;99.90
15013;DHT22;7603;49.432;11.418;2023-02-28T06:48:44;-4.40;99.90
15013;DHT22;7603;49.432;11.418;2023-02-28T06:51:17;-4.30;99.90
15013;DHT22;7603;49.432;11.418;2023-02-28T06:53:46;-4.30;99.90
15013;DHT22;7603;49.432;11.418;2023-02-28T06:56:13;-4.20;99.90
15013;DHT22;7603;49.432;11.418;2023-02-28T06:58:39;-4.10;99.90
15013;DHT22;7603;49.432;11.418;2023-02-28T07:01:06;-4.00;99.90
15013;DHT22;7603;49.432;11.418;2023-02-28T07:03:32;-3.90;99.90
15013;DHT22;7603;49.432;11.418;2023-02-28T07:05:58;-3.80;99.90
15013;DHT22;7603;49.432;11.418;2023-02-28T07:08:24;-3.60;99.90
15013;DHT22;7603;49.432;11.418;2023-02-28T07:10:56;-3.60;99.90
15013;DHT22;7603;49.432;11.418;2023-02-28T07:13:22;-3.40;99.90
15013;DHT22;7603;49.432;11.418;2023-02-28T07:16:01;-3.30;99.90
15013;DHT22;7603;49.432;11.418;2023-02-28T07:18:28;-3.20;99.90
15013;DHT22;7603;49.432;11.418;2023-02-28T07:20:54;-3.10;99.90
15013;DHT22;7603;49.432;11.418;2023-02-28T07:23:20;-3.00;99.90
15013;DHT22;7603;49.432;11.418;2023-02-28T07:25:47;-2.80;99.90
15013;DHT22;7603;49.432;11.418;2023-02-28T07:28:13;-2.70;99.90
15013;DHT22;7603;49.432;11.418;2023-02-28T07:30:39;-2.60;99.90
15013;DHT22;7603;49.432;11.418;2023-02-28T07:33:05;-2.40;99.90
15013;DHT22;7603;49.432;11.418;2023-02-28T07:35:31;-2.30;99.90
15013;DHT22;7603;49.432;11.418;2023-02-28T07:38:00;-2.20;99.90
15013;DHT22;7603;49.432;11.418;2023-02-28T07:40:26;-2.00;99.90
15013;DHT22;7603;49.432;11.418;2023-02-28T07:42:52;-1.80;99.90
15013;DHT22;7603;49.432;11.418;2023-02-28T07:45:18;-1.70;99.90
15013;DHT22;7603;49.432;11.418;2023-02-28T07:47:45;-1.60;99.90
15013;DHT22;7603;49.432;11.418;2023-02-28T07:50:13;-1.40;99.90
15013;DHT22;7603;49.432;11.418;2023-02-28T07:52:39;-1.30;99.90
15013;DHT22;7603;49.432;11.418;2023-02-28T07:55:06;-1.10;99.90
15013;DHT22;7603;49.432;11.418;2023-02-28T07:57:32;-1.00;99.90
15013;DHT22;7603;49.432;11.418;2023-02-28T07:59:58;-0.80;99.90
15013;DHT22;7603;49.432;11.418;2023-02-28T08:02:23;-0.70;99.90
15013;DHT22;7603;49.432;11.418;2023-02-28T08:04:49;-0.60;99.90
15013;DHT22;7603;49.432;11.418;2023-02-28T08:07:15;-0.40;99.90
15013;DHT22;7603;49.432;11.418;2023-02-28T08:09:42;-0.30;99.90
15013;DHT22;7603;49.432;11.418;2023-02-28T08:12:09;-0.20;99.90
15013;DHT22;7603;49.432;11.418;2023-02-28T08:14:36;0.10;99.90
15013;DHT22;7603;49.432;11.418;2023-02-28T08:17:01;0.30;99.90
15013;DHT22;7603;49.432;11.418;2023-02-28T08:19:27;0.60;99.90
15013;DHT22;7603;49.432;11.418;2023-02-28T08:21:54;0.80;99.90
15013;DHT22;7603;49.432;11.418;2023-02-28T08:24:19;1.00;99.90
15013;DHT22;7603;49.432;11.418;2023-02-28T08:26:45;1.10;99.90
15013;DHT22;7603;49.432;11.418;2023-02-28T08:29:11;1.40;99.90
15013;DHT22;7603;49.432;11.418;2023-02-28T08:31:36;1.60;99.90
15013;DHT22;7603;49.432;11.418;2023-02-28T08:34:06;1.80;99.90
15013;DHT22;7603;49.432;11.418;2023-02-28T08:36:32;1.90;99.90
15013;DHT22;7603;49.432;11.418;2023-02-28T08:38:57;2.10;99.90
15013;DHT22;7603;49.432;11.418;2023-02-28T08:41:25;2.30;99.90
15013;DHT22;7603;49.432;11.418;2023-02-28T08:43:51;2.60;99.90
15013;DHT22;7603;49.432;11.418;2023-02-28T08:46:16;2.90;99.90
15013;DHT22;7603;49.432;11.418;2023-02-28T08:48:42;3.20;99.90
15013;DHT22;7603;49.432;11.418;2023-02-28T08:51:11;3.40;99.90
15013;DHT22;7603;49.432;11.418;2023-02-28T08:53:38;3.60;99.90
15013;DHT22;7603;49.432;11.418;2023-02-28T08:56:07;3.90;99.90
15013;DHT22;7603;49.432;11.418;2023-02-28T08:58:33;4.10;99.90
15013;DHT22;7603;49.432;11.418;2023-02-28T09:00:59;4.30;99.90
15013;DHT22;7603;49.432;11.418;2023-02-28T09:03:25;4.60;99.90
15013;DHT22;7603;49.432;11.418;2023-02-28T09:05:54;5.10;99.90
15013;DHT22;7603;49.432;11.418;2023-02-28T09:08:20;5.50;98.90
15013;DHT22;7603;49.432;11.418;2023-02-28T09:10:46;5.80;98.60
15013;DHT22;7603;49.432;11.418;2023-02-28T09:13:12;6.20;95.90
15013;DHT22;7603;49.432;11.418;2023-02-28T09:15:38;6.60;94.60
15013;DHT22;7603;49.432;11.418;2023-02-28T09:18:04;6.90;93.70
15013;DHT22;7603;49.432;11.418;2023-02-28T09:20:29;7.40;92.30
15013;DHT22;7603;49.432;11.418;2023-02-28T09:22:55;8.00;90.90
15013;DHT22;7603;49.432;11.418;2023-02-28T09:25:21;8.70;88.10
15013;DHT22;7603;49.432;11.418;2023-02-28T09:27:46;9.40;84.30
15013;DHT22;7603;49.432;11.418;2023-02-28T09:30:12;10.10;81.20
15013;DHT22;7603;49.432;11.418;2023-02-28T09:32:38;10.60;75.00
15013;DHT22;7603;49.432;11.418;2023-02-28T09:35:04;11.00;71.80
15013;DHT22;7603;49.432;11.418;2023-02-28T09:37:30;11.30;67.70
15013;DHT22;7603;49.432;11.418;2023-02-28T09:39:56;11.70;67.30
15013;DHT22;7603;49.432;11.418;2023-02-28T09:42:28;12.30;64.90
15013;DHT22;7603;49.432;11.418;2023-02-28T09:44:57;12.90;61.80
15013;DHT22;7603;49.432;11.418;2023-02-28T09:47:30;13.30;56.10
15013;DHT22;7603;49.432;11.418;2023-02-28T09:50:03;13.50;54.20
15013;DHT22;7603;49.432;11.418;2023-02-28T09:52:31;13.50;54.40
15013;DHT22;7603;49.432;11.418;2023-02-28T09:57:46;13.50;51.00
15013;DHT22;7603;49.432;11.418;2023-02-28T10:05:28;13.70;49.70
15013;DHT22;7603;49.432;11.418;2023-02-28T10:10:49;14.50;50.10
15013;DHT22;7603;49.432;11.418;2023-02-28T10:13:33;15.30;47.70
15013;DHT22;7603;49.432;11.418;2023-02-28T10:16:10;16.00;45.60
15013;DHT22;7603;49.432;11.418;2023-02-28T10:18:48;16.80;46.00
15013;DHT22;7603;49.432;11.418;2023-02-28T10:21:37;17.70;44.80
15013;DHT22;7603;49.432;11.418;2023-02-28T10:24:35;17.90;39.30
15013;DHT22;7603;49.432;11.418;2023-02-28T10:29:51;17.50;40.00
15013;DHT22;7603;49.432;11.418;2023-02-28T10:32:19;17.70;39.70
15013;DHT22;7603;49.432;11.418;2023-02-28T10:34:53;18.10;40.50
15013;DHT22;7603;49.432;11.418;2023-02-28T10:37:22;18.50;39.10
15013;DHT22;7603;49.432;11.418;2023-02-28T10:39:47;18.60;38.80
15013;DHT22;7603;49.432;11.418;2023-02-28T10:42:20;18.60;36.80
15013;DHT22;7603;49.432;11.418;2023-02-28T10:44:47;18.60;36.80
15013;DHT22;7603;49.432;11.418;2023-02-28T10:47:17;18.40;36.40
15013;DHT22;7603;49.432;11.418;2023-02-28T10:49:48;18.20;36.10
15013;DHT22;7603;49.432;11.418;2023-02-28T10:52:41;18.10;36.50
15013;DHT22;7603;49.432;11.418;2023-02-28T10:55:21;17.90;36.10
15013;DHT22;7603;49.432;11.418;2023-02-28T10:57:49;17.50;36.10
15013;DHT22;7603;49.432;11.418;2023-02-28T11:00:20;17.20;36.40
15013;DHT22;7603;49.432;11.418;2023-02-28T11:02:47;17.10;36.70
15013;DHT22;7603;49.432;11.418;2023-02-28T11:05:34;17.30;37.80
15013;DHT22;7603;49.432;11.418;2023-02-28T11:08:17;18.00;36.60
15013;DHT22;7603;49.432;11.418;2023-02-28T11:11:04;18.60;35.90
15013;DHT22;7603;49.432;11.418;2023-02-28T11:13:35;19.20;35.40
15013;DHT22;7603;49.432;11.418;2023-02-28T11:16:06;20.00;34.60
15013;DHT22;7603;49.432;11.418;2023-02-28T11:18:42;20.90;33.90
15013;DHT22;7603;49.432;11.418;2023-02-28T11:21:09;21.50;31.60
15013;DHT22;7603;49.432;11.418;2023-02-28T11:23:41;21.50;32.00
15013;DHT22;7603;49.432;11.418;2023-02-28T11:26:07;21.40;31.00
15013;DHT22;7603;49.432;11.418;2023-02-28T11:28:39;21.10;31.10
15013;DHT22;7603;49.432;11.418;2023-02-28T11:36:21;22.40;30.30
15013;DHT22;7603;49.432;11.418;2023-02-28T11:38:50;22.80;29.80
15013;DHT22;7603;49.432;11.418;2023-02-28T11:41:30;23.30;29.80
15013;DHT22;7603;49.432;11.418;2023-02-28T11:46:47;23.20;28.70
15013;DHT22;7603;49.432;11.418;2023-02-28T11:51:47;23.90;29.00
15013;DHT22;7603;49.432;11.418;2023-02-28T11:54:27;24.00;27.70
15013;DHT22;7603;49.432;11.418;2023-02-28T11:57:37;24.40;27.70
15013;DHT22;7603;49.432;11.418;2023-02-28T12:05:58;24.80;25.80
15013;DHT22;7603;49.432;11.418;2023-02-28T12:08:38;24.60;26.50
15013;DHT22;7603;49.432;11.418;2023-02-28T12:27:29;24.90;25.60
15013;DHT22;7603;49.432;11.418;2023-02-28T12:30:24;24.60;26.40
15013;DHT22;7603;49.432;11.418;2023-02-28T12:33:07;24.20;25.70
15013;DHT22;7603;49.432;11.418;2023-02-28T12:35:52;24.10;26.10
15013;DHT22;7603;49.432;11.418;2023-02-28T12:38:36;24.00;26.20
15013;DHT22;7603;49.432;11.418;2023-02-28T12:41:09;24.10;26.20
15013;DHT22;7603;49.432;11.418;2023-02-28T12:43:42;24.50;26.20
15013;DHT22;7603;49.432;11.418;2023-02-28T12:46:38;25.00;25.30
15013;DHT22;7603;49.432;11.418;2023-02-28T12:49:13;25.10;25.50
15013;DHT22;7603;49.432;11.418;2023-02-28T12:51:41;25.20;26.20
15013;DHT22;7603;49.432;11.418;2023-02-28T12:54:25;25.30;24.90
15013;DHT22;7603;49.432;11.418;2023-02-28T12:57:11;25.40;24.90
15013;DHT22;7603;49.432;11.418;2023-02-28T13:00:04;25.90;25.00
15013;DHT22;7603;49.432;11.418;2023-02-28T13:02:44;26.50;24.80
15013;DHT22;7603;49.432;11.418;2023-02-28T13:10:50;25.90;24.60
15013;DHT22;7603;49.432;11.418;2023-02-28T13:13:24;25.90;24.50
15013;DHT22;7603;49.432;11.418;2023-02-28T13:16:06;25.90;24.80
15013;DHT22;7603;49.432;11.418;2023-02-28T13:18:44;25.60;25.00
15013;DHT22;7603;49.432;11.418;2023-02-28T13:21:28;25.20;24.80
15013;DHT22;7603;49.432;11.418;2023-02-28T13:23:59;24.40;25.60
15013;DHT22;7603;49.432;11.418;2023-02-28T13:39:58;24.60;24.90
15013;DHT22;7603;49.432;11.418;2023-02-28T13:47:43;24.10;26.00
15013;DHT22;7603;49.432;11.418;2023-02-28T13:50:33;24.40;25.90
15013;DHT22;7603;49.432;11.418;2023-02-28T14:02:18;25.20;24.70
15013;DHT22;7603;49.432;11.418;2023-02-28T14:07:28;24.90;25.10
15013;DHT22;7603;49.432;11.418;2023-02-28T14:10:04;25.50;25.10
15013;DHT22;7603;49.432;11.418;2023-02-28T14:12:57;26.40;24.60
15013;DHT22;7603;49.432;11.418;2023-02-28T14:18:00;27.80;24.00
15013;DHT22;7603;49.432;11.418;2023-02-28T14:20:29;28.20;23.90
15013;DHT22;7603;49.432;11.418;2023-02-28T14:23:04;28.20;23.50
15013;DHT22;7603;49.432;11.418;2023-02-28T14:28:05;27.90;23.80
15013;DHT22;7603;49.432;11.418;2023-02-28T14:30:52;28.20;23.60
15013;DHT22;7603;49.432;11.418;2023-02-28T14:36:33;28.00;23.20
15013;DHT22;7603;49.432;11.418;2023-02-28T14:39:23;28.10;23.40
15013;DHT22;7603;49.432;11.418;2023-02-28T14:41:50;28.50;22.90
15013;DHT22;7603;49.432;11.418;2023-02-28T14:46:48;28.10;23.20
15013;DHT22;7603;49.432;11.418;2023-02-28T14:49:29;27.60;23.20
15013;DHT22;7603;49.432;11.418;2023-02-28T14:52:14;27.30;22.60
15013;DHT22;7603;49.432;11.418;2023-02-28T14:54:43;26.60;23.20
15013;DHT22;7603;49.432;11.418;2023-02-28T14:59:59;25.80;23.80
15013;DHT22;7603;49.432;11.418;2023-02-28T15:02:26;25.50;24.60
15013;DHT22;7603;49.432;11.418;2023-02-28T15:04:56;25.60;24.20
15013;DHT22;7603;49.432;11.418;2023-02-28T15:07:23;25.70;24.10
15013;DHT22;7603;49.432;11.418;2023-02-28T15:12:36;25.50;24.10
15013;DHT22;7603;49.432;11.418;2023-02-28T15:15:03;25.50;24.20
15013;DHT22;7603;49.432;11.418;2023-02-28T15:17:29;25.50;24.20
15013;DHT22;7603;49.432;11.418;2023-02-28T15:19:55;25.50;24.20
15013;DHT22;7603;49.432;11.418;2023-02-28T15:22:30;25.50;24.20
15013;DHT22;7603;49.432;11.418;2023-02-28T15:24:59;25.20;24.40
15013;DHT22;7603;49.432;11.418;2023-02-28T15:27:27;24.90;24.40
15013;DHT22;7603;49.432;11.418;2023-02-28T15:29:57;24.60;24.90
15013;DHT22;7603;49.432;11.418;2023-02-28T15:32:43;24.60;25.00
15013;DHT22;7603;49.432;11.418;2023-02-28T15:38:15;25.20;24.80
15013;DHT22;7603;49.432;11.418;2023-02-28T15:40:44;25.30;24.50
15013;DHT22;7603;49.432;11.418;2023-02-28T15:43:15;24.90;24.50
15013;DHT22;7603;49.432;11.418;2023-02-28T15:45:46;24.30;25.00
15013;DHT22;7603;49.432;11.418;2023-02-28T15:48:17;23.90;25.40
15013;DHT22;7603;49.432;11.418;2023-02-28T15:50:44;23.40;25.80
15013;DHT22;7603;49.432;11.418;2023-02-28T15:53:17;23.00;26.00
15013;DHT22;7603;49.432;11.418;2023-02-28T15:55:44;22.60;26.30
15013;DHT22;7603;49.432;11.418;2023-02-28T15:58:11;22.20;26.70
15013;DHT22;7603;49.432;11.418;2023-02-28T16:00:38;21.80;27.10
15013;DHT22;7603;49.432;11.418;2023-02-28T16:03:27;21.50;27.50
15013;DHT22;7603;49.432;11.418;2023-02-28T16:06:19;21.40;27.70
15013;DHT22;7603;49.432;11.418;2023-02-28T16:08:48;21.40;27.70
15013;DHT22;7603;49.432;11.418;2023-02-28T16:11:15;21.20;27.60
15013;DHT22;7603;49.432;11.418;2023-02-28T16:13:40;20.40;27.90
15013;DHT22;7603;49.432;11.418;2023-02-28T16:16:06;19.00;28.70
15013;DHT22;7603;49.432;11.418;2023-02-28T16:18:32;17.40;29.90
15013;DHT22;7603;49.432;11.418;2023-02-28T16:20:57;15.80;32.10
15013;DHT22;7603;49.432;11.418;2023-02-28T16:23:23;14.30;34.30
15013;DHT22;7603;49.432;11.418;2023-02-28T16:25:48;13.00;36.40
15013;DHT22;7603;49.432;11.418;2023-02-28T16:28:28;11.90;38.00
15013;DHT22;7603;49.432;11.418;2023-02-28T16:31:00;10.80;40.50
15013;DHT22;7603;49.432;11.418;2023-02-28T16:33:28;9.80;42.30
15013;DHT22;7603;49.432;11.418;2023-02-28T16:35:54;9.00;44.00
15013;DHT22;7603;49.432;11.418;2023-02-28T16:38:20;8.40;45.80
15013;DHT22;7603;49.432;11.418;2023-02-28T16:40:46;7.70;48.30
15013;DHT22;7603;49.432;11.418;2023-02-28T16:43:19;7.20;48.90
15013;DHT22;7603;49.432;11.418;2023-02-28T16:45:47;6.70;50.70
15013;DHT22;7603;49.432;11.418;2023-02-28T16:48:15;6.30;51.90
15013;DHT22;7603;49.432;11.418;2023-02-28T16:50:42;5.90;53.50
15013;DHT22;7603;49.432;11.418;2023-02-28T16:53:09;5.60;54.40
15013;DHT22;7603;49.432;11.418;2023-02-28T16:55:35;5.30;55.30
15013;DHT22;7603;49.432;11.418;2023-02-28T16:58:02;5.00;55.00
15013;DHT22;7603;49.432;11.418;2023-02-28T17:00:30;4.80;57.10
15013;DHT22;7603;49.432;11.418;2023-02-28T17:02:57;4.60;58.90
15013;DHT22;7603;49.432;11.418;2023-02-28T17:05:25;4.30;60.00
15013;DHT22;7603;49.432;11.418;2023-02-28T17:07:51;4.10;60.20
15013;DHT22;7603;49.432;11.418;2023-02-28T17:10:25;3.90;61.20
15013;DHT22;7603;49.432;11.418;2023-02-28T17:12:51;3.70;62.50
15013;DHT22;7603;49.432;11.418;2023-02-28T17:15:19;3.50;64.40
15013;DHT22;7603;49.432;11.418;2023-02-28T17:17:46;3.30;65.00
15013;DHT22;7603;49.432;11.418;2023-02-28T17:20:17;3.10;63.30
15013;DHT22;7603;49.432;11.418;2023-02-28T17:22:42;3.00;66.90
15013;DHT22;7603;49.432;11.418;2023-02-28T17:25:09;2.80;68.00
15013;DHT22;7603;49.432;11.418;2023-02-28T17:27:36;2.70;69.50
15013;DHT22;7603;49.432;11.418;2023-02-28T17:30:09;2.50;70.70
15013;DHT22;7603;49.432;11.418;2023-02-28T17:32:38;2.40;71.00
15013;DHT22;7603;49.432;11.418;2023-02-28T17:35:04;2.20;72.60
15013;DHT22;7603;49.432;11.418;2023-02-28T17:37:30;2.10;74.40
15013;DHT22;7603;49.432;11.418;2023-02-28T17:39:56;2.00;75.10
15013;DHT22;7603;49.432;11.418;2023-02-28T17:42:21;1.90;75.70
15013;DHT22;7603;49.432;11.418;2023-02-28T17:44:47;1.80;74.40
15013;DHT22;7603;49.432;11.418;2023-02-28T17:47:12;1.70;77.70
15013;DHT22;7603;49.432;11.418;2023-02-28T17:49:38;1.60;77.20
15013;DHT22;7603;49.432;11.418;2023-02-28T17:52:04;1.50;81.90
15013;DHT22;7603;49.432;11.418;2023-02-28T17:54:29;1.40;83.90
15013;DHT22;7603;49.432;11.418;2023-02-28T17:56:56;1.20;85.00
15013;DHT22;7603;49.432;11.418;2023-02-28T17:59:23;1.10;87.70